Quincy Xavi Simons

Ojeador - Heracles
22 Feb 2028
Martes
Continuar

Personalidad

Adaptabilidad (20) Ambición (7) Controversia (18) Lealtad (6) Presión (18) Profesionalismo (14) Deportividad (6) Temperamento (15)

Perfil

Estilo de dirección Democrático
Licencia Continental A
Determinación 10
Gestión de personas 10
Motivación 4
Disciplina 12
Satisfacción laboral
100%
Fatiga
0%
Cargo Ojeador
Salario 47.9K p/s
Contrato 14.03.2030

Rendimiento

Comportamiento Bueno
Efectividad del entrenamiento
41%
Desarrollo de jugadores
40%
Prevención de lesiones
60%
Implementación táctica
40%

Eventos recientes

Asistió a una reunión de captación 7d atrás
Asistió a una reunión de captación 7d atrás
Asistió a una reunión de captación 14d atrás
Asistió a una reunión de captación 14d atrás
Asistió a una reunión de captación 21d atrás
Asistió a una reunión de captación 21d atrás
Asistió a una reunión de captación 28d atrás
Asistió a una reunión de captación 28d atrás

Actualmente siguiendo

79
Jugador Club Estado Habilidad Confianza Observado Última observación Último voto
Seth Annink Zwolle Activo 84 / 89 30% 1 / 1m 10.11.2027 -
Zinho Witsel Mouscron Activo 76 / 80 40% 1 11.01.2027 -
Cisse Sandra Westerlo Activo 108 / 113 40% 1 30.12.2026 -
Ruben van Bommel Ferencvaros Activo 130 / 130 40% 1 30.12.2026 -
Fredrik Hammar KV Mechelen Activo 118 / 112 40% 1 26.12.2026 -
Daijiro Chirino Almería Activo 132 / 137 40% 1 26.12.2026 -
Harry Clarke Preston Activo 129 / 135 40% 1 26.12.2026 -
Nikolas Sattlberger Racing Genk Activo 123 / 117 40% 5 23.12.2026 -
Alejandro Pozo Andorra Activo 124 / 121 40% 1 23.12.2026 -
Max Bird Birmingham Activo 132 / 121 40% 1 23.12.2026 -
Adrien Truffert Bournemouth Activo 144 / 146 40% 3 22.12.2026 -
Alejandro Balde Barcelona Activo 151 / 148 40% 1 22.12.2026 -
Callum Doyle Wrexham Activo 129 / 123 40% 1 22.12.2026 -
Chris Lokesa Waasland-Beveren Activo 115 / 117 40% 2 21.12.2026 -
Kevin Amaro Racing Genk Activo 122 / 121 40% 2 21.12.2026 -
Ez Abde Girona Activo 151 / 157 40% 1 18.12.2026 -
Cheveyo Tsawa Club Brugge Activo 110 / 113 40% 2 16.12.2026 -
Williams Manyama SuperSport United Activo 108 / 133 40% 1 16.12.2026 -
Yoann Cathline Utrecht Activo 129 / 120 40% 2 12.12.2026 -
Thibaud Verlinden OH Leuven Activo 123 / 128 40% 3 12.12.2026 -
Jan Virgili Club Brugge Activo 129 / 142 40% 2 10.12.2026 -
Rémi Lemoine Chamois Niortais Activo 157 / 148 40% 1 10.12.2026 -
Anselmo García Mac Nulty Tondela Activo 114 / 122 40% 1 09.12.2026 -
Ewoud Pletinckx OH Leuven Activo 124 / 119 40% 1 09.12.2026 -
Mathias Delorge KAA Gent Activo 115 / 120 40% 2 08.12.2026 -
Zinho Vanaken KV Oostende Activo 129 / 121 40% 2 08.12.2026 -
Sieben Dewaele Waasland-Beveren Activo 112 / 115 40% 1 08.12.2026 -
Daan Heymans Racing Genk Activo 123 / 129 40% 3 05.12.2026 -
Mardochée Nzita Charleroi Activo 110 / 118 40% 2 28.11.2026 -
Tom Fellows Southampton Activo 127 / 132 40% 1 28.11.2026 -
Łukasz Łakomy OH Leuven Activo 115 / 127 40% 3 27.11.2026 -
Yaimar Medina Racing Genk Activo 122 / 131 40% 2 23.11.2026 -
Ryotaro Araki Sint-Truiden Activo 119 / 127 40% 1 23.11.2026 -
Antoine Colassin Charleroi Activo 115 / 128 40% 2 22.11.2026 -
Myron Boadu Twente Activo 127 / 133 40% 1 22.11.2026 -
Alan Lescano Argentinos Juniors Activo 123 / 140 40% 1 22.11.2026 -
Myron van Brederode KV Mechelen Activo 114 / 115 40% 3 19.11.2026 -
Nayel Mehssatou KV Kortrijk Activo 113 / 107 40% 1 19.11.2026 -
Carlos Vicente Birmingham Activo 149 / 147 40% 1 19.11.2026 -
Aimé Omgba KAA Gent Activo 124 / 113 40% 3 18.11.2026 -
Joaquin Seys Club Brugge Activo 121 / 122 40% 1 18.11.2026 -
Christian Tielemans KV Oostende Activo 143 / 149 40% 1 15.11.2026 -
Félix Lemaréchal Club Brugge Activo 133 / 125 40% 2 14.11.2026 -
Derensili Sanches Fernandes Huddersfield Town Activo 125 / 126 40% 1 12.11.2026 -
Isaiah Jones Luton Town Activo 125 / 118 40% 1 12.11.2026 -
Tristan Degreef Anderlecht Activo 122 / 121 40% 2 07.11.2026 -
Henok Teklab OH Leuven Activo 114 / 121 40% 3 07.11.2026 -
Kyriani Sabbe Club Brugge Activo 117 / 123 40% 2 07.11.2026 -
Robert-Jan Vanwesemael Sint-Truiden Activo 113 / 129 40% 2 06.11.2026 -
Léandre Kuavita Waasland-Beveren Activo 122 / 124 40% 1 06.11.2026 -
Leonardo Lopes KAA Gent Activo 123 / 106 40% 1 06.11.2026 -
Nazareno Colombo Racing Club Activo 124 / 114 40% 1 02.11.2026 -
Ryan Sessegnon Fulham Activo 147 / 155 40% 1 02.11.2026 -
Thomas Claes Zulte Waregem Activo 119 / 130 40% 1 29.10.2026 -
Diego Lainez Tigres Activo 128 / 125 40% 1 28.10.2026 -
Adriano Bertaccini Anderlecht Activo 126 / 128 40% 3 26.10.2026 -
Ilias Sebaoui Sint-Truiden Activo 124 / 123 40% 1 26.10.2026 -
Freddie Potts Club Brugge Activo 128 / 132 40% 1 25.10.2026 -
Jeppe Erenbjerg Racing Genk Activo 119 / 126 40% 1 25.10.2026 -
Ibrahim Karamoko Standard Liege Activo 115 / 113 40% 1 22.10.2026 -
Amine Adli Bournemouth Activo 147 / 132 40% 1 22.10.2026 -
Ilyes Najim Waasland-Beveren Activo 114 / 109 40% 2 18.10.2026 -
Bill Antonio KV Mechelen Activo 120 / 126 40% 1 18.10.2026 -
Jakob Napoleon Romsaas Charleroi Activo 113 / 120 40% 1 14.10.2026 -
Matteo Dams Club Brugge Activo 132 / 134 40% 1 11.10.2026 -
Ilay Camara Anderlecht Activo 134 / 130 40% 1 08.10.2026 -
Mario Stroeykens Anderlecht Activo 123 / 119 40% 1 07.10.2026 -
Oscar Gloukh Ajax Activo 127 / 130 40% 1 05.10.2026 -
Ilyas Ansah Hull City Activo 129 / 138 40% 1 19.09.2026 -
Will Lankshear Middlesbrough Activo 124 / 127 40% 1 17.09.2026 -
Mateus Mané Manchester United Activo 126 / 131 40% 1 17.09.2026 -
Thomas Waddingham Portsmouth Activo 97 / 110 40% 1 16.09.2026 -
Ayoub Oufkir AZ Activo 119 / 135 40% 1 16.09.2026 -
Dom Ballard Leyton Orient Activo 117 / 127 40% 1 13.09.2026 -
Siebe Van Keymolen Zulte Waregem Activo 93 / 104 40% 1 12.09.2026 -
David Kalokoh Ajax Activo 106 / 112 40% 1 12.09.2026 Más información
Youssoufa Moukoko FC Copenhagen Activo 121 / 128 40% 1 09.09.2026 -
Aiham Ousou Charleroi Activo 132 / 137 40% 1 07.09.2026 -
Ryan Fosso Standard Liege Activo 121 / 125 40% 1 07.09.2026 -